Time;durP1;ratioP1;P1;durP2;ratioP2;P2;SDS_P1;SDS_P2;PMS_P1;PMS_P2;Temp;Humidity;BMP_temperature;BMP_pressure;BME280_temperature;BME280_humidity;BME280_pressure;Samples;Min_cycle;Max_cycle;Signal;HPM_P1;HPM_P2
2022/03/01 00:00:37;;;;;;;21.40;10.27;;;2.60;99.90;;;;;;5033427;28;20085;-83
2022/03/01 00:03:03;;;;;;;17.58;10.45;;;2.60;99.90;;;;;;5034472;28;20034;-84
2022/03/01 00:05:28;;;;;;;19.95;9.40;;;2.60;99.90;;;;;;5034494;28;20440;-83
2022/03/01 00:07:54;;;;;;;18.00;9.50;;;2.60;99.90;;;;;;5032667;28;20033;-84
2022/03/01 00:10:19;;;;;;;22.08;10.02;;;2.60;99.90;;;;;;5034257;28;20080;-83
2022/03/01 00:12:45;;;;;;;20.92;11.57;;;2.60;99.90;;;;;;5025544;28;20026;-83
2022/03/01 00:15:10;;;;;;;25.88;12.63;;;2.70;99.90;;;;;;5033287;28;20103;-84
2022/03/01 00:17:36;;;;;;;19.52;11.02;;;2.70;99.90;;;;;;5033826;28;20508;-83
2022/03/01 00:20:03;;;;;;;21.27;11.55;;;2.70;99.90;;;;;;5028634;28;20124;-83
2022/03/01 00:22:29;;;;;;;18.85;11.00;;;2.70;99.90;;;;;;5030981;28;20032;-83
2022/03/01 00:24:54;;;;;;;21.27;10.50;;;2.70;99.90;;;;;;5034485;28;20583;-83
2022/03/01 00:27:20;;;;;;;21.27;10.20;;;2.60;99.90;;;;;;5033876;28;20032;-84
2022/03/01 00:29:46;;;;;;;20.75;10.40;;;2.50;99.90;;;;;;5031531;28;20029;-83
2022/03/01 00:32:11;;;;;;;19.40;10.07;;;2.60;99.90;;;;;;5033111;28;20026;-83
2022/03/01 00:34:37;;;;;;;17.10;9.45;;;2.50;99.90;;;;;;5033853;28;20025;-84
2022/03/01 00:37:03;;;;;;;20.02;10.82;;;2.60;99.90;;;;;;5030443;28;20466;-84
2022/03/01 00:39:29;;;;;;;19.30;10.30;;;2.60;99.90;;;;;;5033095;28;20500;-83
2022/03/01 00:41:55;;;;;;;22.23;9.93;;;2.60;99.90;;;;;;5033297;28;20120;-83
2022/03/01 00:44:20;;;;;;;19.92;11.02;;;2.60;99.90;;;;;;5033751;28;20033;-84
2022/03/01 00:46:46;;;;;;;21.83;11.55;;;2.60;99.90;;;;;;5033233;28;20049;-83
2022/03/01 00:49:11;;;;;;;22.05;11.23;;;2.60;99.90;;;;;;5026537;28;20033;-83
2022/03/01 00:51:37;;;;;;;22.45;10.88;;;2.60;99.90;;;;;;5029687;28;20025;-84
2022/03/01 00:54:03;;;;;;;20.85;11.05;;;2.50;99.90;;;;;;5029588;28;20478;-84
2022/03/01 00:56:30;;;;;;;24.77;11.13;;;2.40;99.90;;;;;;5033114;28;20083;-84
2022/03/01 00:58:56;;;;;;;20.10;10.95;;;2.30;99.90;;;;;;5030140;28;20083;-84
2022/03/01 01:01:21;;;;;;;23.75;11.50;;;2.30;99.90;;;;;;5033425;28;20033;-84
2022/03/01 01:03:47;;;;;;;21.13;11.93;;;2.30;99.90;;;;;;5029707;28;20041;-84
2022/03/01 01:06:13;;;;;;;22.08;11.27;;;2.20;99.90;;;;;;5031870;28;20021;-83
2022/03/01 01:08:38;;;;;;;19.67;10.93;;;2.20;99.90;;;;;;5031358;28;20021;-84
2022/03/01 01:11:04;;;;;;;21.45;11.93;;;2.10;99.90;;;;;;5031241;28;20164;-83
2022/03/01 01:13:30;;;;;;;23.20;12.73;;;2.10;99.90;;;;;;5032628;28;20021;-84
2022/03/01 01:15:56;;;;;;;26.63;12.38;;;2.10;99.90;;;;;;5033192;28;20041;-83
2022/03/01 01:18:21;;;;;;;25.52;10.77;;;2.10;99.90;;;;;;5027666;28;20032;-84
2022/03/01 01:20:47;;;;;;;22.33;10.70;;;2.10;99.90;;;;;;5032105;28;20053;-84
2022/03/01 01:23:13;;;;;;;19.15;9.68;;;2.10;99.90;;;;;;5032587;28;20044;-84
2022/03/01 01:25:38;;;;;;;21.25;10.68;;;2.10;99.90;;;;;;5030235;28;20033;-84
2022/03/01 01:28:04;;;;;;;20.77;10.82;;;2.10;99.90;;;;;;5030872;28;20398;-83
2022/03/01 01:30:34;;;;;;;19.90;10.63;;;2.10;99.90;;;;;;5032582;28;20113;-84
2022/03/01 01:33:00;;;;;;;20.25;10.10;;;2.10;99.90;;;;;;5028743;28;20048;-84
2022/03/01 01:35:29;;;;;;;20.50;10.45;;;2.20;99.90;;;;;;5033011;28;20029;-84
2022/03/01 01:37:55;;;;;;;23.98;11.80;;;2.20;99.90;;;;;;5032222;28;20100;-83
2022/03/01 01:40:27;;;;;;;21.92;10.85;;;2.20;99.90;;;;;;5032668;28;20493;-84
2022/03/01 01:42:53;;;;;;;25.10;11.43;;;2.20;99.90;;;;;;5030884;28;20043;-84
2022/03/01 01:45:20;;;;;;;19.40;10.93;;;2.20;99.90;;;;;;5031035;28;20496;-84
2022/03/01 01:47:47;;;;;;;22.60;11.30;;;2.20;99.90;;;;;;5024690;28;20021;-84
2022/03/01 01:50:14;;;;;;;22.98;11.18;;;2.20;99.90;;;;;;5032390;28;20049;-84
2022/03/01 01:52:39;;;;;;;22.40;11.50;;;2.10;99.90;;;;;;5023735;28;20021;-83
2022/03/01 01:55:05;;;;;;;25.25;11.32;;;2.10;99.90;;;;;;5032415;28;20120;-84
2022/03/01 01:57:30;;;;;;;18.45;10.27;;;2.10;99.90;;;;;;5031096;28;20029;-84
2022/03/01 01:59:56;;;;;;;22.55;11.93;;;2.00;99.90;;;;;;5031735;28;20059;-83
2022/03/01 02:02:24;;;;;;;22.50;10.90;;;2.00;99.90;;;;;;5031997;28;20017;-84
2022/03/01 02:04:50;;;;;;;26.70;12.07;;;2.00;99.90;;;;;;5023922;28;20029;-84
2022/03/01 02:07:16;;;;;;;22.50;11.38;;;2.00;99.90;;;;;;5031936;28;20021;-83
2022/03/01 02:09:42;;;;;;;23.27;11.93;;;2.00;99.90;;;;;;5027682;28;20076;-84
2022/03/01 02:12:08;;;;;;;26.80;12.80;;;2.00;99.90;;;;;;5031890;28;20033;-83
2022/03/01 02:14:37;;;;;;;24.65;12.10;;;2.00;99.90;;;;;;5026060;28;20385;-83
2022/03/01 02:17:06;;;;;;;18.23;9.52;;;2.00;99.90;;;;;;5028624;28;20033;-82
2022/03/01 02:19:32;;;;;;;23.42;11.55;;;2.00;99.90;;;;;;5029363;28;20049;-82
2022/03/01 02:21:58;;;;;;;22.17;10.80;;;2.00;99.90;;;;;;5031985;28;20072;-82
2022/03/01 02:24:29;;;;;;;21.83;11.15;;;2.10;99.90;;;;;;5018615;28;20449;-82
2022/03/01 02:26:55;;;;;;;22.35;12.60;;;2.00;99.90;;;;;;5023311;28;20033;-83
2022/03/01 02:29:22;;;;;;;25.05;12.65;;;2.00;99.90;;;;;;5031370;28;20397;-83
2022/03/01 02:31:47;;;;;;;25.73;11.43;;;2.00;99.90;;;;;;5031369;28;20492;-83
2022/03/01 02:34:13;;;;;;;18.75;10.82;;;2.00;99.90;;;;;;5032284;28;20033;-83
2022/03/01 02:36:39;;;;;;;19.50;10.88;;;2.00;99.90;;;;;;5034403;28;20096;-83
2022/03/01 02:39:04;;;;;;;22.95;12.05;;;1.90;99.90;;;;;;5035384;28;20057;-83
2022/03/01 02:41:30;;;;;;;23.58;11.93;;;1.90;99.90;;;;;;5036366;28;20040;-82
2022/03/01 02:43:56;;;;;;;19.42;10.55;;;1.90;99.90;;;;;;5033950;28;20029;-83
2022/03/01 02:46:23;;;;;;;21.08;11.43;;;1.90;99.90;;;;;;5029084;28;20029;-82
2022/03/01 02:48:49;;;;;;;21.10;12.05;;;1.90;99.90;;;;;;5034729;28;20018;-83
2022/03/01 02:51:14;;;;;;;20.58;10.30;;;1.90;99.90;;;;;;5035354;28;20507;-83
2022/03/01 02:53:40;;;;;;;22.02;12.10;;;1.90;99.90;;;;;;5036356;28;20014;-83
2022/03/01 02:56:05;;;;;;;19.65;10.77;;;1.90;99.90;;;;;;5032726;28;20030;-84
2022/03/01 02:58:31;;;;;;;21.33;11.70;;;2.00;99.90;;;;;;5032796;28;20151;-83
2022/03/01 03:00:56;;;;;;;20.50;10.35;;;2.00;99.90;;;;;;5035745;28;20041;-83
2022/03/01 03:03:22;;;;;;;21.42;11.27;;;2.00;99.90;;;;;;5034947;28;20405;-83
2022/03/01 03:05:47;;;;;;;24.95;11.02;;;2.00;99.90;;;;;;5035536;28;20025;-83
2022/03/01 03:08:13;;;;;;;19.33;11.23;;;2.00;99.90;;;;;;5027376;28;20097;-83
2022/03/01 03:10:39;;;;;;;25.95;11.65;;;2.00;99.90;;;;;;5034124;28;20036;-83
2022/03/01 03:13:05;;;;;;;23.27;11.80;;;2.00;99.90;;;;;;5035493;28;20108;-83
2022/03/01 03:15:33;;;;;;;24.65;11.80;;;2.00;99.90;;;;;;5035451;28;20116;-83
2022/03/01 03:17:59;;;;;;;22.92;11.63;;;2.10;99.90;;;;;;5018901;28;20034;-83
2022/03/01 03:20:25;;;;;;;20.00;11.18;;;2.10;99.90;;;;;;5031714;28;20557;-83
2022/03/01 03:22:51;;;;;;;24.55;11.77;;;2.10;99.90;;;;;;5032863;28;20024;-83
2022/03/01 03:25:17;;;;;;;23.10;11.60;;;2.10;99.90;;;;;;5035664;28;20428;-83
2022/03/01 03:27:43;;;;;;;22.50;11.02;;;2.10;99.90;;;;;;5034470;28;20458;-83
2022/03/01 03:30:09;;;;;;;22.10;11.38;;;2.10;99.90;;;;;;5031930;28;20018;-83
2022/03/01 03:32:35;;;;;;;20.25;10.73;;;2.10;99.90;;;;;;5027556;28;20058;-83
2022/03/01 03:35:02;;;;;;;19.58;11.10;;;2.10;99.90;;;;;;5034373;28;20053;-84
2022/03/01 03:37:28;;;;;;;22.23;11.52;;;2.10;99.90;;;;;;5034313;28;20020;-84
2022/03/01 03:39:53;;;;;;;22.27;11.13;;;2.10;99.90;;;;;;5034458;28;20029;-84
2022/03/01 03:42:19;;;;;;;22.15;10.77;;;2.10;99.90;;;;;;5031971;28;20033;-82
2022/03/01 03:44:45;;;;;;;29.00;12.77;;;2.10;99.90;;;;;;5031325;28;20037;-83
2022/03/01 03:47:11;;;;;;;24.38;12.10;;;2.10;99.90;;;;;;5033582;28;20029;-84
2022/03/01 03:49:37;;;;;;;21.05;11.20;;;2.10;99.90;;;;;;5034584;28;20017;-84
2022/03/01 03:52:04;;;;;;;22.02;11.93;;;2.10;99.90;;;;;;5035126;28;20029;-84
2022/03/01 03:54:30;;;;;;;24.02;11.82;;;2.10;99.90;;;;;;5034238;28;20167;-84
2022/03/01 03:56:56;;;;;;;19.27;11.23;;;2.10;99.90;;;;;;5033197;28;20117;-83
2022/03/01 03:59:22;;;;;;;26.10;11.52;;;2.10;99.90;;;;;;5034435;28;20033;-84
2022/03/01 04:01:47;;;;;;;23.98;11.25;;;2.20;99.90;;;;;;5034380;28;20049;-84
2022/03/01 04:04:13;;;;;;;18.80;10.27;;;2.20;99.90;;;;;;5033546;28;20048;-83
2022/03/01 04:06:39;;;;;;;22.45;11.15;;;2.30;99.90;;;;;;5034511;28;20523;-84
2022/03/01 04:09:05;;;;;;;24.67;10.43;;;2.30;99.90;;;;;;5028205;28;20373;-83
2022/03/01 04:11:31;;;;;;;21.05;11.35;;;2.30;99.90;;;;;;5029498;28;20092;-84
2022/03/01 04:13:57;;;;;;;26.52;11.38;;;2.30;99.90;;;;;;5033544;28;20425;-84
2022/03/01 04:16:23;;;;;;;27.48;12.23;;;2.30;99.90;;;;;;5035018;28;20092;-84
2022/03/01 04:18:49;;;;;;;22.48;12.35;;;2.30;99.90;;;;;;5034108;28;20350;-84
2022/03/01 04:21:16;;;;;;;23.15;12.77;;;2.30;99.90;;;;;;5033438;28;20045;-83
2022/03/01 04:23:41;;;;;;;22.75;10.73;;;2.30;99.90;;;;;;5029934;28;20029;-84
2022/03/01 04:26:07;;;;;;;21.55;10.38;;;2.30;99.90;;;;;;5033330;28;20009;-84
2022/03/01 04:28:32;;;;;;;22.30;10.90;;;2.30;99.90;;;;;;5034111;28;20381;-84
2022/03/01 04:30:58;;;;;;;21.50;11.68;;;2.20;99.90;;;;;;5025187;28;20034;-83
2022/03/01 04:33:23;;;;;;;22.38;11.50;;;2.20;99.90;;;;;;5023191;28;20030;-83
2022/03/01 04:35:49;;;;;;;23.45;12.52;;;2.20;99.90;;;;;;5034309;28;20033;-84
2022/03/01 04:38:15;;;;;;;20.13;10.70;;;2.10;99.90;;;;;;5033908;28;20029;-84
2022/03/01 04:40:41;;;;;;;25.02;12.52;;;2.10;99.90;;;;;;5026797;28;20041;-84
2022/03/01 04:43:06;;;;;;;22.55;12.85;;;2.10;99.90;;;;;;5033868;28;20080;-84
2022/03/01 04:45:32;;;;;;;23.00;11.50;;;2.10;99.90;;;;;;5033616;28;20068;-84
2022/03/01 04:47:59;;;;;;;24.52;12.07;;;2.10;99.90;;;;;;5029226;28;20057;-84
2022/03/01 04:50:25;;;;;;;21.67;11.13;;;2.10;99.90;;;;;;5032527;28;20029;-84
2022/03/01 04:52:50;;;;;;;22.80;11.90;;;2.00;99.90;;;;;;5033047;28;20083;-83
2022/03/01 04:55:16;;;;;;;23.55;12.20;;;2.10;99.90;;;;;;5034118;28;20029;-84
2022/03/01 04:57:43;;;;;;;22.10;11.93;;;2.10;99.90;;;;;;5032802;28;20409;-83
2022/03/01 05:00:10;;;;;;;25.10;13.25;;;2.10;99.90;;;;;;5032087;28;20037;-84
2022/03/01 05:02:38;;;;;;;27.02;12.68;;;2.10;99.90;;;;;;5017414;28;20423;-83
2022/03/01 05:05:04;;;;;;;30.60;11.95;;;2.10;99.90;;;;;;5031924;28;20041;-83
2022/03/01 05:07:30;;;;;;;23.25;12.00;;;2.10;99.90;;;;;;5029732;28;20033;-84
2022/03/01 05:09:55;;;;;;;24.70;12.55;;;2.10;99.90;;;;;;5030656;28;20053;-84
2022/03/01 05:12:21;;;;;;;24.13;12.88;;;2.10;99.90;;;;;;5033663;28;20470;-85
2022/03/01 05:14:46;;;;;;;25.17;12.27;;;2.10;99.90;;;;;;5031519;28;20104;-83
2022/03/01 05:17:12;;;;;;;26.98;13.52;;;2.10;99.90;;;;;;5031349;28;20106;-83
2022/03/01 05:19:37;;;;;;;23.48;12.05;;;2.10;99.90;;;;;;5029139;28;20180;-83
2022/03/01 05:22:03;;;;;;;24.13;12.52;;;2.10;99.90;;;;;;5027287;28;20042;-84
2022/03/01 05:24:29;;;;;;;22.90;12.85;;;2.10;99.90;;;;;;5023527;28;20108;-83
2022/03/01 05:26:54;;;;;;;25.27;12.30;;;2.20;99.90;;;;;;5024003;28;20026;-84
2022/03/01 05:29:20;;;;;;;25.58;12.20;;;2.20;99.90;;;;;;5017808;28;20109;-84
2022/03/01 05:31:46;;;;;;;22.50;12.63;;;2.20;99.90;;;;;;5025397;28;20045;-84
2022/03/01 05:34:11;;;;;;;26.92;13.25;;;2.10;99.90;;;;;;5020780;28;20385;-83
2022/03/01 05:36:37;;;;;;;28.05;13.43;;;2.10;99.90;;;;;;5021287;28;20026;-83
2022/03/01 05:39:02;;;;;;;22.30;12.07;;;2.10;99.90;;;;;;5023942;28;20045;-83
2022/03/01 05:41:28;;;;;;;24.45;12.60;;;2.10;99.90;;;;;;5022220;28;20033;-83
2022/03/01 05:43:54;;;;;;;24.25;13.73;;;2.10;99.90;;;;;;5027351;28;20025;-83
2022/03/01 05:46:19;;;;;;;25.30;12.68;;;2.10;99.90;;;;;;5026549;28;20033;-83
2022/03/01 05:48:45;;;;;;;27.92;13.52;;;2.10;99.90;;;;;;5027607;28;20098;-83
2022/03/01 05:51:11;;;;;;;21.23;11.70;;;2.10;99.90;;;;;;5020293;28;20033;-83
2022/03/01 05:53:36;;;;;;;25.55;12.05;;;2.10;99.90;;;;;;5026134;28;20040;-82
2022/03/01 05:56:02;;;;;;;25.05;13.65;;;2.20;99.90;;;;;;5024145;28;20781;-82
2022/03/01 05:58:28;;;;;;;26.05;12.50;;;2.20;99.90;;;;;;5028344;28;20022;-82
2022/03/01 06:00:53;;;;;;;24.92;12.43;;;2.20;99.90;;;;;;5027745;28;20040;-83
2022/03/01 06:03:19;;;;;;;22.42;12.25;;;2.20;99.90;;;;;;5030237;28;20530;-84
2022/03/01 06:05:44;;;;;;;22.73;12.38;;;2.20;99.90;;;;;;5031044;28;20250;-87
2022/03/01 06:08:10;;;;;;;24.55;13.25;;;2.20;99.90;;;;;;5027720;28;20067;-84
2022/03/01 06:10:35;;;;;;;23.10;13.05;;;2.20;99.90;;;;;;5028511;28;20048;-86
2022/03/01 06:13:01;;;;;;;22.48;12.45;;;2.20;99.90;;;;;;5023639;28;20029;-85
2022/03/01 06:15:27;;;;;;;22.77;12.70;;;2.20;99.90;;;;;;5027703;28;20032;-86
2022/03/01 06:17:52;;;;;;;26.85;12.93;;;2.10;99.90;;;;;;5023477;28;20032;-85
2022/03/01 06:20:18;;;;;;;23.52;12.75;;;2.10;99.90;;;;;;5028306;28;20143;-86
2022/03/01 06:22:44;;;;;;;21.83;12.73;;;2.10;99.90;;;;;;5021631;28;20409;-86
2022/03/01 06:25:11;;;;;;;25.83;13.73;;;2.00;99.90;;;;;;5024469;28;20022;-86
2022/03/01 06:27:38;;;;;;;25.48;12.68;;;2.00;99.90;;;;;;5029128;28;20033;-85
2022/03/01 06:30:05;;;;;;;23.58;12.95;;;2.00;99.90;;;;;;5027049;28;20025;-84
2022/03/01 06:32:30;;;;;;;24.75;13.50;;;2.00;99.90;;;;;;5028014;28;20025;-85
2022/03/01 06:34:56;;;;;;;22.73;12.07;;;2.00;99.90;;;;;;5025776;28;20104;-85
2022/03/01 06:37:22;;;;;;;25.08;12.98;;;2.00;99.90;;;;;;5030268;28;20026;-85
2022/03/01 06:39:50;;;;;;;27.10;12.80;;;2.00;99.90;;;;;;5029256;28;20030;-85
2022/03/01 06:42:16;;;;;;;25.85;12.60;;;2.00;99.90;;;;;;5019099;28;20044;-85
2022/03/01 06:44:42;;;;;;;23.45;12.48;;;2.00;99.90;;;;;;5028086;28;20074;-83
2022/03/01 06:47:08;;;;;;;27.23;12.90;;;2.00;99.90;;;;;;5029910;28;20331;-84
2022/03/01 06:49:34;;;;;;;24.65;12.40;;;1.90;99.90;;;;;;5029378;28;20030;-84
2022/03/01 06:51:59;;;;;;;23.60;12.85;;;1.90;99.90;;;;;;5028720;28;20032;-85
2022/03/01 06:54:25;;;;;;;24.17;11.95;;;1.90;99.90;;;;;;5029609;28;20382;-84
2022/03/01 06:56:50;;;;;;;24.75;12.48;;;1.90;99.90;;;;;;5031063;28;20032;-84
2022/03/01 06:59:16;;;;;;;24.73;13.63;;;2.00;99.90;;;;;;5023920;28;20088;-84
2022/03/01 07:01:45;;;;;;;23.88;12.15;;;1.90;99.90;;;;;;5031681;28;20049;-84
2022/03/01 07:04:10;;;;;;;23.75;12.15;;;2.00;99.90;;;;;;5030951;28;20029;-84
2022/03/01 07:06:36;;;;;;;29.70;13.50;;;2.00;99.90;;;;;;5025915;28;20026;-85
2022/03/01 07:09:01;;;;;;;22.48;11.95;;;2.10;99.90;;;;;;5030771;28;20052;-84
2022/03/01 07:11:27;;;;;;;30.75;12.82;;;2.10;99.90;;;;;;5032979;28;20385;-84
2022/03/01 07:13:52;;;;;;;24.45;12.90;;;2.20;99.90;;;;;;5029626;28;20030;-84
2022/03/01 07:16:18;;;;;;;24.65;12.38;;;2.30;99.90;;;;;;5021923;28;20030;-85
2022/03/01 07:18:44;;;;;;;21.65;11.68;;;2.30;99.90;;;;;;5031556;28;20026;-84
2022/03/01 07:21:10;;;;;;;24.15;12.30;;;2.40;99.90;;;;;;5030728;28;20037;-84
2022/03/01 07:23:36;;;;;;;22.63;11.77;;;2.50;99.90;;;;;;5027797;28;20407;-85
2022/03/01 07:26:03;;;;;;;23.10;11.95;;;2.50;99.90;;;;;;5026422;28;20030;-84
2022/03/01 07:28:28;;;;;;;25.77;13.57;;;2.60;99.90;;;;;;5033833;28;20035;-85
2022/03/01 07:30:55;;;;;;;26.00;12.05;;;2.70;99.90;;;;;;5037150;28;20423;-84
2022/03/01 07:33:20;;;;;;;22.73;12.27;;;2.80;99.90;;;;;;5033739;28;20100;-85
2022/03/01 07:35:46;;;;;;;25.00;12.82;;;2.90;99.90;;;;;;5036429;28;20446;-84
2022/03/01 07:38:12;;;;;;;24.08;12.77;;;3.00;99.90;;;;;;5036890;28;20040;-85
2022/03/01 07:40:38;;;;;;;20.42;12.07;;;3.00;99.90;;;;;;5033375;28;20437;-84
2022/03/01 07:43:03;;;;;;;24.70;12.98;;;3.10;99.90;;;;;;5034395;28;20029;-85
2022/03/01 07:45:29;;;;;;;21.90;11.63;;;3.10;99.90;;;;;;5033958;28;20033;-85
2022/03/01 07:47:56;;;;;;;23.70;12.85;;;3.20;99.90;;;;;;5033867;28;20033;-85
2022/03/01 07:50:21;;;;;;;21.20;12.20;;;3.20;99.90;;;;;;5030308;28;20106;-85
2022/03/01 07:52:47;;;;;;;19.85;11.55;;;3.20;99.90;;;;;;5034959;28;20059;-85
2022/03/01 07:55:13;;;;;;;22.08;13.15;;;3.30;99.90;;;;;;5032330;28;20078;-85
2022/03/01 07:57:39;;;;;;;22.83;12.30;;;3.30;99.90;;;;;;5035204;28;20017;-84
2022/03/01 08:00:06;;;;;;;24.80;12.13;;;3.40;99.90;;;;;;5031281;28;20088;-85
2022/03/01 08:02:31;;;;;;;23.80;12.98;;;3.50;99.90;;;;;;5029887;28;20159;-85
2022/03/01 08:04:57;;;;;;;24.17;12.27;;;3.60;99.90;;;;;;5031777;28;20049;-86
2022/03/01 08:07:24;;;;;;;24.48;11.98;;;3.70;99.90;;;;;;5032512;28;20065;-84
2022/03/01 08:09:49;;;;;;;22.98;12.48;;;3.80;99.90;;;;;;5030588;28;20119;-82
2022/03/01 08:12:15;;;;;;;24.00;13.20;;;3.80;99.90;;;;;;5031178;28;20061;-79
2022/03/01 08:14:40;;;;;;;24.80;13.18;;;3.80;99.90;;;;;;5031799;28;20104;-78
2022/03/01 08:17:06;;;;;;;28.13;12.82;;;3.80;99.90;;;;;;5023921;28;20037;-79
2022/03/01 08:19:31;;;;;;;25.98;13.07;;;3.90;99.90;;;;;;5018346;28;20114;-79
2022/03/01 08:21:57;;;;;;;23.00;13.13;;;3.90;99.90;;;;;;5030762;28;20025;-78
2022/03/01 08:24:23;;;;;;;24.95;13.10;;;3.90;99.90;;;;;;5032264;28;20034;-82
2022/03/01 08:26:49;;;;;;;25.88;13.00;;;4.00;99.90;;;;;;5032531;28;20064;-81
2022/03/01 08:29:17;;;;;;;24.42;12.77;;;4.10;99.90;;;;;;5030439;28;20013;-78
2022/03/01 08:31:43;;;;;;;24.23;13.52;;;4.20;99.90;;;;;;5027884;28;20047;-82
2022/03/01 08:34:09;;;;;;;26.67;13.43;;;4.20;99.90;;;;;;5027278;28;20405;-81
2022/03/01 08:36:35;;;;;;;29.23;13.65;;;4.30;99.90;;;;;;5028374;28;20036;-81
2022/03/01 08:39:00;;;;;;;27.65;14.85;;;4.40;99.90;;;;;;5030232;28;20029;-81
2022/03/01 08:41:26;;;;;;;25.40;14.20;;;4.50;99.90;;;;;;5033100;28;20448;-81
2022/03/01 08:43:51;;;;;;;22.88;13.30;;;4.50;99.90;;;;;;5029477;28;20474;-80
2022/03/01 08:46:17;;;;;;;25.13;13.68;;;4.50;99.90;;;;;;5024179;28;20029;-80
2022/03/01 08:48:44;;;;;;;25.20;14.20;;;4.60;99.90;;;;;;5031043;28;20033;-79
2022/03/01 08:51:11;;;;;;;26.23;13.18;;;4.60;99.90;;;;;;5030328;28;20044;-80
2022/03/01 08:53:36;;;;;;;25.70;13.55;;;4.70;99.90;;;;;;5026993;28;20030;-81
2022/03/01 08:56:02;;;;;;;29.83;15.10;;;4.80;99.90;;;;;;5023161;28;20040;-80
2022/03/01 08:58:28;;;;;;;22.88;13.15;;;4.80;99.90;;;;;;5028583;28;20029;-81
2022/03/01 09:00:53;;;;;;;23.25;12.65;;;4.90;99.90;;;;;;5024759;28;20441;-80
2022/03/01 09:03:19;;;;;;;27.15;13.60;;;5.00;99.90;;;;;;5024859;28;20025;-81
2022/03/01 09:05:45;;;;;;;23.85;13.57;;;5.10;99.90;;;;;;5028304;28;20061;-80
2022/03/01 09:08:13;;;;;;;24.17;13.32;;;5.20;99.90;;;;;;5030447;28;20119;-81
2022/03/01 09:10:40;;;;;;;23.92;13.18;;;5.20;99.90;;;;;;5030548;28;20036;-81
2022/03/01 09:13:06;;;;;;;21.63;13.00;;;5.30;99.90;;;;;;5030990;28;20393;-81
2022/03/01 09:15:32;;;;;;;24.25;13.82;;;5.40;99.90;;;;;;5031473;28;20030;-81
2022/03/01 09:18:02;;;;;;;25.30;13.75;;;5.50;99.90;;;;;;5028059;28;20029;-81
2022/03/01 09:20:27;;;;;;;23.02;13.52;;;5.60;99.80;;;;;;5032194;28;20047;-81
2022/03/01 09:22:54;;;;;;;24.40;13.73;;;5.60;99.90;;;;;;5026566;28;20361;-80
2022/03/01 09:25:19;;;;;;;21.20;13.18;;;5.70;99.50;;;;;;5032300;28;20099;-80
2022/03/01 09:27:45;;;;;;;23.08;13.70;;;5.80;99.50;;;;;;5032664;28;20033;-81
2022/03/01 09:30:12;;;;;;;25.17;14.63;;;5.80;99.30;;;;;;5030949;28;20551;-81
2022/03/01 09:32:37;;;;;;;25.60;14.05;;;5.90;99.30;;;;;;5031776;28;20083;-81
2022/03/01 09:35:03;;;;;;;23.35;13.93;;;6.00;99.30;;;;;;5030649;28;20045;-80
2022/03/01 09:37:32;;;;;;;22.75;14.02;;;6.00;99.10;;;;;;5031972;28;20049;-81
2022/03/01 09:39:59;;;;;;;26.35;14.07;;;6.10;98.90;;;;;;5032559;28;20045;-81
2022/03/01 09:42:26;;;;;;;27.48;14.57;;;6.10;98.90;;;;;;5027066;28;20026;-81
2022/03/01 09:44:53;;;;;;;23.73;13.07;;;6.10;99.10;;;;;;5030568;28;20041;-81
2022/03/01 09:47:18;;;;;;;23.42;14.07;;;6.20;98.90;;;;;;5028441;28;20268;-81
2022/03/01 09:49:44;;;;;;;26.67;14.68;;;6.30;98.80;;;;;;5028516;28;20078;-81
2022/03/01 09:52:10;;;;;;;26.83;14.20;;;6.40;98.50;;;;;;5028187;28;20095;-82
2022/03/01 09:54:35;;;;;;;23.40;13.02;;;6.40;98.40;;;;;;5030823;28;20029;-81
2022/03/01 09:57:01;;;;;;;24.33;13.95;;;6.50;98.30;;;;;;5023864;28;20038;-81
2022/03/01 09:59:26;;;;;;;24.48;13.30;;;6.70;98.10;;;;;;5026586;28;20028;-81
2022/03/01 10:01:53;;;;;;;22.55;12.63;;;6.80;97.80;;;;;;5029962;28;20044;-81
2022/03/01 10:04:19;;;;;;;21.80;12.57;;;7.00;97.50;;;;;;5024915;28;20022;-81
2022/03/01 10:06:47;;;;;;;20.83;11.80;;;7.10;97.10;;;;;;5030868;28;20148;-80
2022/03/01 10:09:17;;;;;;;20.23;13.07;;;7.20;96.50;;;;;;5028376;28;20026;-81
2022/03/01 10:11:44;;;;;;;20.63;12.60;;;7.40;96.30;;;;;;5027976;28;20021;-80
2022/03/01 10:14:10;;;;;;;21.30;13.18;;;7.50;95.70;;;;;;5026841;28;20792;-79
2022/03/01 10:16:39;;;;;;;27.75;13.43;;;7.60;95.60;;;;;;5026516;28;20037;-80
2022/03/01 10:19:09;;;;;;;22.05;12.68;;;7.70;94.80;;;;;;5031689;28;20029;-80
2022/03/01 10:21:35;;;;;;;21.17;13.02;;;7.80;94.50;;;;;;5031068;28;20378;-81
2022/03/01 10:24:00;;;;;;;18.40;11.48;;;7.80;94.40;;;;;;5029710;28;20056;-81
2022/03/01 10:26:28;;;;;;;22.92;13.07;;;7.90;94.10;;;;;;5030559;28;20060;-81
2022/03/01 10:28:56;;;;;;;19.95;12.05;;;7.90;93.90;;;;;;5028863;28;20101;-82
2022/03/01 10:31:25;;;;;;;19.65;12.52;;;8.00;93.40;;;;;;5028630;28;20482;-81
2022/03/01 10:33:56;;;;;;;21.55;13.02;;;8.00;92.90;;;;;;5011336;28;20026;-80
2022/03/01 10:36:25;;;;;;;24.73;13.65;;;8.00;92.70;;;;;;5021786;28;20570;-80
2022/03/01 10:39:09;;;;;;;22.15;12.45;;;8.10;93.00;;;;;;5027876;28;20025;-80
2022/03/01 10:41:41;;;;;;;22.63;13.18;;;8.10;92.80;;;;;;5025105;28;20481;-81
2022/03/01 10:44:12;;;;;;;20.47;13.37;;;8.20;92.80;;;;;;5030989;28;20025;-82
2022/03/01 10:46:40;;;;;;;24.40;13.57;;;8.30;92.80;;;;;;5026034;28;20367;-82
2022/03/01 10:49:11;;;;;;;20.67;13.43;;;8.40;92.70;;;;;;5026869;28;20033;-82
2022/03/01 10:52:08;;;;;;;22.73;13.55;;;8.60;92.80;;;;;;5024743;28;20026;-82
2022/03/01 10:54:39;;;;;;;23.08;12.15;;;8.70;92.40;;;;;;5012543;28;20029;-81
2022/03/01 10:57:08;;;;;;;19.98;12.68;;;8.90;91.90;;;;;;5028357;28;20230;-81
2022/03/01 10:59:39;;;;;;;22.20;12.55;;;9.00;91.40;;;;;;5031753;28;20024;-82
2022/03/01 11:02:06;;;;;;;19.58;12.35;;;9.10;90.80;;;;;;5024117;28;20037;-81
2022/03/01 11:04:32;;;;;;;20.45;12.05;;;9.30;90.10;;;;;;5026419;28;20474;-81
2022/03/01 11:07:01;;;;;;;19.73;12.82;;;9.40;89.30;;;;;;5020016;28;20148;-81
2022/03/01 11:09:29;;;;;;;21.95;11.18;;;9.50;87.50;;;;;;5030245;28;20489;-81
2022/03/01 11:11:56;;;;;;;19.98;11.95;;;9.60;86.70;;;;;;5034406;28;20029;-81
2022/03/01 11:14:32;;;;;;;22.35;11.98;;;9.70;85.50;;;;;;5029971;28;20025;-81
2022/03/01 11:17:04;;;;;;;19.98;11.68;;;9.80;84.20;;;;;;5021305;28;20116;-81
2022/03/01 11:20:03;;;;;;;22.42;13.48;;;9.80;83.70;;;;;;5035084;28;20045;-81
2022/03/01 11:22:44;;;;;;;21.35;13.23;;;9.80;81.90;;;;;;5035931;28;20040;-82
2022/03/01 11:25:23;;;;;;;21.45;12.07;;;9.70;82.20;;;;;;5035859;28;20022;-82
2022/03/01 11:27:53;;;;;;;21.80;12.65;;;9.70;80.50;;;;;;5031414;28;20041;-82
2022/03/01 11:30:30;;;;;;;24.60;11.82;;;9.60;79.50;;;;;;5036165;28;20029;-81
2022/03/01 11:32:57;;;;;;;20.15;11.80;;;9.60;80.40;;;;;;5036063;28;20381;-82
2022/03/01 11:35:26;;;;;;;21.33;12.27;;;9.60;80.60;;;;;;5037434;28;20026;-83
2022/03/01 11:38:08;;;;;;;19.17;11.95;;;9.70;80.50;;;;;;5034920;28;20112;-82
2022/03/01 11:40:36;;;;;;;20.33;12.68;;;9.70;79.60;;;;;;5036002;28;20068;-81
2022/03/01 11:43:13;;;;;;;22.95;13.35;;;9.70;79.70;;;;;;5036473;28;20025;-82
2022/03/01 11:45:44;;;;;;;19.77;12.48;;;9.60;78.90;;;;;;5036778;28;20033;-81
2022/03/01 11:48:16;;;;;;;21.10;13.35;;;9.70;79.40;;;;;;5036293;28;20021;-82
2022/03/01 11:51:04;;;;;;;20.88;12.55;;;9.60;77.70;;;;;;5035972;28;20434;-82
2022/03/01 11:53:34;;;;;;;22.42;12.85;;;9.60;77.70;;;;;;5026336;28;20100;-82
2022/03/01 11:56:02;;;;;;;21.05;12.02;;;9.60;77.60;;;;;;5014682;28;20029;-82
2022/03/01 11:58:28;;;;;;;22.13;14.43;;;9.60;77.20;;;;;;5029367;28;20029;-81
2022/03/01 12:00:55;;;;;;;23.77;14.18;;;9.60;77.30;;;;;;5035983;28;20041;-80
2022/03/01 12:03:25;;;;;;;18.67;12.48;;;9.70;77.40;;;;;;5039638;28;20409;-81
2022/03/01 12:05:51;;;;;;;23.75;13.05;;;9.70;77.10;;;;;;5035806;28;20064;-79
2022/03/01 12:08:18;;;;;;;22.48;13.95;;;9.70;76.70;;;;;;5036116;28;20030;-80
2022/03/01 12:10:56;;;;;;;23.08;12.85;;;9.70;77.10;;;;;;5035676;28;20400;-81
2022/03/01 12:13:37;;;;;;;20.98;13.07;;;9.90;77.60;;;;;;5035961;28;20030;-81
2022/03/01 12:16:05;;;;;;;22.33;13.00;;;9.90;77.30;;;;;;5034098;28;20124;-81
2022/03/01 12:18:34;;;;;;;21.70;13.25;;;9.90;75.90;;;;;;5037532;28;20022;-79
2022/03/01 12:21:02;;;;;;;22.23;12.30;;;9.90;75.90;;;;;;5037549;28;20060;-81
2022/03/01 12:23:31;;;;;;;20.30;13.20;;;9.90;76.00;;;;;;5039400;28;20374;-81
2022/03/01 12:26:00;;;;;;;18.58;11.65;;;10.00;75.60;;;;;;5044580;28;20026;-81
2022/03/01 12:28:29;;;;;;;19.02;11.05;;;10.10;75.70;;;;;;5033520;28;20129;-82
2022/03/01 12:30:58;;;;;;;18.75;11.23;;;10.20;75.30;;;;;;5035690;28;20060;-79
2022/03/01 12:33:23;;;;;;;20.70;11.60;;;10.30;74.80;;;;;;5035919;28;20033;-79